• Join FlightAware (Why Join?)
  • Login
  • US Flag 
02:07PM EDT


 

Airport Tracker/Info


-or-


 

Live Flight TrackerFlight Track Log ✈ TYR394 ✈ 09-Apr-2013 ✈ LEBL / BCN - LOWW / VIE

Flight Track Log - Related Links

Times and Time Zones

All times are in EDT time to prevent confusion due to time zone crossing. See the TYR394 flight status page for this flight to view local times or setup timezone preferences in your user account.

Time Position Orientation Groundspeed Altitude Reporting Facility
EDT Latitude Longitude Course Direction KTS MPH feet Rate Location/Type
02:50PM 42.2960 3.8011 52° Northeast  Level Estimated
02:51PM 42.3663 3.9262 53° Northeast  Level Estimated
02:52PM 42.4365 4.0516 53° Northeast  Level Estimated
02:53PM 42.5066 4.1772 53° Northeast  Level Estimated
02:54PM 42.5765 4.3032 53° Northeast  Level Estimated
02:55PM 42.6463 4.4294 53° Northeast  Level Estimated
02:56PM 42.7160 4.5560 53° Northeast  Level Estimated
02:57PM 42.7855 4.6828 53° Northeast  Level Estimated
02:58PM 42.8549 4.8099 53° Northeast  Level Estimated
02:59PM 42.9241 4.9372 53° Northeast  Level Estimated
03:00PM 42.9932 5.0649 53° Northeast  Level Estimated
03:01PM 43.0622 5.1928 54° Northeast  Level Estimated
03:02PM 43.1310 5.3211 54° Northeast  Level Estimated
03:03PM 43.1997 5.4496 54° Northeast  Level Estimated
03:04PM 43.2682 5.5784 54° Northeast  Level Estimated
03:05PM 43.3366 5.7075 54° Northeast  Level Estimated
03:06PM 43.4048 5.8369 54° Northeast  Level Estimated
03:07PM 43.4729 5.9666 54° Northeast  Level Estimated
03:08PM 43.5409 6.0966 54° Northeast  Level Estimated
03:09PM 43.6087 6.2269 54° Northeast  Level Estimated
03:10PM 43.6763 6.3575 54° Northeast  Level Estimated
03:11PM 43.7438 6.4883 54° Northeast  Level Estimated
03:12PM 43.8112 6.6195 55° Northeast  Level Estimated
03:13PM 43.8784 6.7509 55° Northeast  Level Estimated
03:14PM 43.9454 6.8827 55° Northeast  Level Estimated
03:15PM 44.0123 7.0147 55° Northeast  Level Estimated
03:16PM 44.0790 7.1471 55° Northeast  Level Estimated
03:17PM 44.1456 7.2797 55° Northeast  Level Estimated
03:18PM 44.2121 7.4126 55° Northeast  Level Estimated
03:19PM 44.2784 7.5459 55° Northeast  Level Estimated
03:20PM 44.3445 7.6794 55° Northeast  Level Estimated
03:21PM 44.4105 7.8133 55° Northeast  Level Estimated
03:22PM 44.4763 7.9474 55° Northeast  Level Estimated
03:23PM 44.5419 8.0819 56° Northeast  Level Estimated
03:24PM 44.6074 8.2166 56° Northeast  Level Estimated
03:25PM 44.6728 8.3517 56° Northeast  Level Estimated
03:26PM 44.7380 8.4870 56° Northeast  Level Estimated
03:27PM 44.8030 8.6227 56° Northeast  Level Estimated
03:28PM 44.8678 8.7587 56° Northeast  Level Estimated
03:29PM 44.9325 8.8949 56° Northeast  Level Estimated
03:30PM 44.9971 9.0315 56° Northeast  Level Estimated
03:31PM 45.0615 9.1684 56° Northeast  Level Estimated
03:32PM 45.1257 9.3056 56° Northeast  Level Estimated
03:33PM 45.1897 9.4431 57° Northeast  Level Estimated
03:34PM 45.2536 9.5809 57° Northeast  Level Estimated
03:35PM 45.3173 9.7191 57° Northeast  Level Estimated
03:36PM 45.3808 9.8575 57° Northeast  Level Estimated
03:37PM 45.4442 9.9963 57° Northeast  Level Estimated
03:38PM 45.5074 10.1353 57° Northeast  Level Estimated
03:39PM 45.5705 10.2747 57° Northeast  Level Estimated
03:40PM 45.6333 10.4144 57° Northeast  Level Estimated
03:41PM 45.6960 10.5544 57° Northeast  Level Estimated
03:42PM 45.7586 10.6947 57° Northeast  Level Estimated
03:43PM 45.8209 10.8353 57° Northeast  Level Estimated
03:44PM 45.8831 10.9763 58° Northeast  Level Estimated
03:45PM 45.9451 11.1175 58° Northeast  Level Estimated
03:46PM 46.0070 11.2591 58° Northeast  Level Estimated
03:47PM 46.0686 11.4010 58° Northeast  Level Estimated
03:48PM 46.1301 11.5432 58° Northeast  Level Estimated
03:49PM 46.1914 11.6857 58° Northeast  Level Estimated
03:50PM 46.2525 11.8286 58° Northeast  Level Estimated
03:51PM 46.3135 11.9717 58° Northeast  Level Estimated
03:52PM 46.3743 12.1152 58° Northeast  Level Estimated
03:53PM 46.4349 12.2590 59° Northeast  Level Estimated
03:54PM 46.4953 12.4031 59° Northeast  Level Estimated
03:55PM 46.5555 12.5476 59° Northeast  Level Estimated
03:56PM 46.6156 12.6923 59° Northeast  Level Estimated
03:57PM 46.6754 12.8374 59° Northeast  Level Estimated
03:58PM 46.7351 12.9828 59° Northeast  Level Estimated
03:59PM 46.7946 13.1285 59° Northeast  Level Estimated
04:00PM 46.8539 13.2746 59° Northeast  Level Estimated
04:01PM 46.9130 13.4209 59° Northeast  Level Estimated
04:02PM 46.9720 13.5676 59° Northeast  Level Estimated
04:03PM 47.0307 13.7147 60° Northeast  Level Estimated
04:04PM 47.0893 13.8620 60° Northeast  Level Estimated
04:05PM 47.1477 14.0097 60° Northeast  Level Estimated
04:06PM 47.2058 14.1576 60° Northeast  Level Estimated
04:07PM 47.2638 14.3060 60° Northeast  Level Estimated
04:08PM 47.3216 14.4546 60° Northeast  Level Estimated
04:09PM 47.3792 14.6035 60° Northeast  Level Estimated
04:10PM 47.4367 14.7528 60° Northeast  Level Estimated
04:11PM 47.4939 14.9024 60° Northeast  Level Estimated
04:12PM 47.5509 15.0524 61° Northeast  Level Estimated
04:13PM 47.6077 15.2026 61° Northeast  Level Estimated
04:14PM 47.6644 15.3532 61° Northeast  Level Estimated
04:15PM 47.7208 15.5041 61° Northeast  Level Estimated
04:16PM 47.7771 15.6554 61° Northeast  Level Estimated
04:17PM 47.8331 15.8069 61° Northeast  Level Estimated
04:18PM 47.8889 15.9588 61° Northeast  Level Estimated
04:19PM 47.9446 16.1111 61° Northeast  Level Estimated
04:20PM 48.0000 16.2636 61° Northeast  Level Estimated
04:21PM 48.0552 16.4165 62° Northeast  Level Estimated
04:22PM 48.1103 16.5697 62° Northeast  Level Estimated
04:23PM 48.1103 16.5697 61° Northeast  Level Estimated
04:24PM 48.1103 16.5697 146° Southeast  Level Estimated
04:25PM 48.1103 16.5697 146° Southeast  Level Estimated
04:26PM 48.1103 16.5697 146° Southeast  Level Estimated
04:27PM 48.1103 16.5697 146° Southeast  Level Estimated
04:28PM 48.1103 16.5697 146° Southeast  Level Estimated
04:29PM 48.1103 16.5697 146° Southeast  Level Estimated
04:30PM 48.1103 16.5697 146° Southeast  Level Estimated
04:31PM 48.1103 16.5697 146° Southeast  Level Estimated